Time,TemperatureF,DewpointF,PressureIn,WindDirection,WindDirectionDegrees,WindSpeedMPH,WindSpeedGustMPH,Humidity,HourlyPrecipIn,Conditions,Clouds,dailyrainin,SoftwareType,DateUTC
2013-04-03 00:03:00,24.0,20.0,-100.00,WNW,295,3.0,6.0,85,0.18,,,-99.99,,2013-04-03 04:03:00,
2013-04-03 00:12:00,24.0,20.0,-100.00,NW,315,3.0,7.0,86,0.98,,,-99.99,,2013-04-03 04:12:00,
2013-04-03 00:23:00,24.0,21.0,-100.00,WNW,300,1.0,6.0,88,0.91,,,-99.99,,2013-04-03 04:23:00,
2013-04-03 00:33:00,24.0,21.0,-100.00,SW,220,0.0,4.0,88,0.34,,,-99.99,,2013-04-03 04:33:00,
2013-04-03 00:43:00,23.0,20.0,-100.00,SW,225,1.0,4.0,89,0.00,,,-99.99,,2013-04-03 04:43:00,
2013-04-03 00:53:00,23.0,20.0,-100.00,SW,235,3.0,6.0,89,0.01,,,-99.99,,2013-04-03 04:53:00,
2013-04-03 01:02:00,23.0,20.0,-100.00,WSW,245,3.0,9.0,88,0.01,,,-99.99,,2013-04-03 05:02:00,
2013-04-03 01:12:00,23.0,20.0,-100.00,WSW,245,1.0,4.0,88,0.01,,,-99.99,,2013-04-03 05:12:00,
2013-04-03 01:22:00,23.0,19.0,-100.00,West,280,2.0,9.0,86,0.00,,,-99.99,,2013-04-03 05:22:00,
2013-04-03 01:32:00,22.0,18.0,-100.00,SSW,200,0.0,6.0,84,0.00,,,-99.99,,2013-04-03 05:32:00,
2013-04-03 01:42:00,23.0,17.0,-100.00,SSW,210,2.0,9.0,80,0.00,,,-99.99,,2013-04-03 05:42:00,
2013-04-03 01:52:00,23.0,17.0,-100.00,WSW,240,1.0,7.0,78,0.00,,,-99.99,,2013-04-03 05:52:00,
2013-04-03 02:12:00,22.0,17.0,-100.00,WSW,245,1.0,2.0,78,0.00,,,-99.99,,2013-04-03 06:12:00,
2013-04-03 02:22:00,22.0,16.0,-100.00,SW,225,1.0,3.0,76,0.00,,,-99.99,,2013-04-03 06:22:00,
2013-04-03 02:32:00,22.0,15.0,-100.00,SSW,200,1.0,4.0,76,0.00,,,-99.99,,2013-04-03 06:32:00,
2013-04-03 02:42:00,22.0,14.0,-100.00,SW,220,2.0,4.0,71,0.00,,,-99.99,,2013-04-03 06:42:00,
2013-04-03 02:52:00,22.0,14.0,-100.00,WSW,240,1.0,4.0,70,0.00,,,-99.99,,2013-04-03 06:52:00,
2013-04-03 03:02:00,22.0,14.0,-100.00,WSW,245,2.0,4.0,68,0.00,,,-99.99,,2013-04-03 07:02:00,
2013-04-03 03:12:00,23.0,13.0,-100.00,WNW,295,4.0,11.0,65,0.00,,,-99.99,,2013-04-03 07:12:00,
2013-04-03 03:23:00,23.0,13.0,-100.00,West,275,1.0,5.0,66,0.00,,,-99.99,,2013-04-03 07:23:00,
2013-04-03 03:33:00,23.0,11.0,-100.00,West,280,2.0,6.0,60,0.00,,,-99.99,,2013-04-03 07:33:00,
2013-04-03 03:42:00,23.0,11.0,-100.00,NNE,30,1.0,11.0,58,0.00,,,-99.99,,2013-04-03 07:42:00,
2013-04-03 03:52:00,23.0,11.0,-100.00,West,265,2.0,4.0,59,0.00,,,-99.99,,2013-04-03 07:52:00,
2013-04-03 04:03:00,23.0,10.0,-100.00,WNW,300,1.0,7.0,57,0.00,,,-99.99,,2013-04-03 08:03:00,
2013-04-03 04:12:00,24.0,11.0,-100.00,NE,45,1.0,3.0,58,0.00,,,-99.99,,2013-04-03 08:12:00,
2013-04-03 04:22:00,24.0,12.0,-100.00,West,260,1.0,6.0,61,0.00,,,-99.99,,2013-04-03 08:22:00,
2013-04-03 04:32:00,24.0,11.0,-100.00,SW,215,1.0,4.0,59,0.00,,,-99.99,,2013-04-03 08:32:00,
2013-04-03 04:42:00,24.0,9.0,-100.00,WNW,300,6.0,12.0,51,0.00,,,-99.99,,2013-04-03 08:42:00,
2013-04-03 04:52:00,24.0,10.0,-100.00,West,270,3.0,7.0,54,0.00,,,-99.99,,2013-04-03 08:52:00,
2013-04-03 05:02:00,24.0,8.0,-100.00,WNW,295,4.0,13.0,50,0.00,,,-99.99,,2013-04-03 09:02:00,
2013-04-03 05:12:00,24.0,9.0,-100.00,North,-999,-999.0,-999.0,52,0.00,,,-99.99,,2013-04-03 09:12:00,
2013-04-03 05:22:00,24.0,9.0,-100.00,WSW,245,1.0,4.0,52,0.00,,,-99.99,,2013-04-03 09:22:00,
2013-04-03 05:33:00,24.0,9.0,-100.00,NW,305,2.0,8.0,53,0.00,,,-99.99,,2013-04-03 09:33:00,
2013-04-03 05:43:00,24.0,8.0,-100.00,NNW,345,4.0,10.0,50,0.00,,,-99.99,,2013-04-03 09:43:00,
2013-04-03 05:53:00,24.0,9.0,-100.00,WNW,295,2.0,8.0,51,0.00,,,-99.99,,2013-04-03 09:53:00,
2013-04-03 06:03:00,24.0,8.0,-100.00,WNW,300,4.0,12.0,51,0.00,,,-99.99,,2013-04-03 10:03:00,
2013-04-03 06:12:00,24.0,9.0,-100.00,North,-999,-999.0,-999.0,53,0.00,,,-99.99,,2013-04-03 10:12:00,
2013-04-03 06:22:00,23.0,10.0,-100.00,West,260,2.0,9.0,56,0.00,,,-99.99,,2013-04-03 10:22:00,
2013-04-03 06:33:00,23.0,10.0,-100.00,West,260,4.0,11.0,55,0.00,,,-99.99,,2013-04-03 10:33:00,
2013-04-03 06:43:00,23.0,10.0,-100.00,WNW,285,1.0,7.0,56,0.00,,,-99.99,,2013-04-03 10:43:00,
2013-04-03 06:52:00,23.0,9.0,-100.00,WNW,285,4.0,7.0,56,0.00,,,-99.99,,2013-04-03 10:52:00,
2013-04-03 07:02:00,23.0,10.0,-100.00,NW,305,3.0,7.0,57,0.00,,,-99.99,,2013-04-03 11:02:00,
2013-04-03 07:12:00,23.0,10.0,-100.00,WNW,290,3.0,8.0,56,0.00,,,-99.99,,2013-04-03 11:12:00,
2013-04-03 07:23:00,23.0,10.0,-100.00,West,275,3.0,10.0,55,0.00,,,-99.99,,2013-04-03 11:23:00,
2013-04-03 07:32:00,23.0,9.0,-100.00,West,270,4.0,9.0,55,0.00,,,-99.99,,2013-04-03 11:32:00,
2013-04-03 07:42:00,23.0,10.0,-100.00,WNW,300,4.0,11.0,55,0.00,,,-99.99,,2013-04-03 11:42:00,
2013-04-03 07:52:00,24.0,10.0,-100.00,West,270,5.0,12.0,54,0.00,,,-99.99,,2013-04-03 11:52:00,
2013-04-03 08:02:00,24.0,9.0,-100.00,WNW,290,4.0,11.0,53,0.00,,,-99.99,,2013-04-03 12:02:00,
2013-04-03 08:13:00,24.0,9.0,-100.00,NW,325,6.0,12.0,51,0.00,,,-99.99,,2013-04-03 12:13:00,
2013-04-03 08:22:00,25.0,9.0,-100.00,NW,325,4.0,12.0,51,0.00,,,-99.99,,2013-04-03 12:22:00,
2013-04-03 08:33:00,26.0,9.0,-100.00,West,275,4.0,11.0,49,0.00,,,-99.99,,2013-04-03 12:33:00,
2013-04-03 08:42:00,26.0,8.0,-100.00,NW,325,7.0,12.0,47,0.00,,,-99.99,,2013-04-03 12:42:00,
2013-04-03 08:52:00,28.0,8.0,-100.00,WNW,285,5.0,9.0,41,0.00,,,-99.99,,2013-04-03 12:52:00,
2013-04-03 09:02:00,28.0,8.0,-100.00,NW,310,4.0,10.0,42,0.00,,,-99.99,,2013-04-03 13:02:00,
2013-04-03 09:12:00,27.0,6.0,-100.00,WNW,300,5.0,12.0,40,0.00,,,-99.99,,2013-04-03 13:12:00,
2013-04-03 09:22:00,27.0,5.0,-100.00,West,265,6.0,16.0,38,0.00,,,-99.99,,2013-04-03 13:22:00,
2013-04-03 09:32:00,28.0,6.0,-100.00,NNW,335,5.0,16.0,38,0.00,,,-99.99,,2013-04-03 13:32:00,
2013-04-03 09:42:00,28.0,5.0,-100.00,WNW,300,10.0,16.0,37,0.00,,,-99.99,,2013-04-03 13:42:00,
2013-04-03 09:52:00,27.0,5.0,-100.00,NW,320,9.0,21.0,37,0.00,,,-99.99,,2013-04-03 13:52:00,
2013-04-03 10:02:00,28.0,5.0,-100.00,WNW,295,6.0,20.0,37,0.00,,,-99.99,,2013-04-03 14:02:00,
2013-04-03 10:12:00,28.0,6.0,-100.00,NNW,345,9.0,19.0,38,0.00,,,-99.99,,2013-04-03 14:12:00,
2013-04-03 10:22:00,28.0,5.0,-100.00,NNW,340,11.0,19.0,36,0.00,,,-99.99,,2013-04-03 14:22:00,
2013-04-03 10:32:00,29.0,6.0,-100.00,West,270,5.0,26.0,37,0.00,,,-99.99,,2013-04-03 14:32:00,
2013-04-03 10:42:00,29.0,5.0,-100.00,West,280,7.0,19.0,36,0.00,,,-99.99,,2013-04-03 14:42:00,
2013-04-03 11:02:00,29.0,4.0,-100.00,West,275,8.0,21.0,34,0.00,,,-99.99,,2013-04-03 15:02:00,
2013-04-03 11:12:00,29.0,4.0,-100.00,WNW,300,10.0,18.0,33,0.00,,,-99.99,,2013-04-03 15:12:00,
2013-04-03 11:23:00,29.0,4.0,-100.00,West,280,10.0,20.0,34,0.00,,,-99.99,,2013-04-03 15:23:00,
2013-04-03 11:33:00,30.0,5.0,-100.00,WNW,300,9.0,20.0,33,0.00,,,-99.99,,2013-04-03 15:33:00,
2013-04-03 11:42:00,29.0,5.0,-100.00,NNW,345,11.0,19.0,35,0.00,,,-99.99,,2013-04-03 15:42:00,
2013-04-03 11:53:00,30.0,4.0,-100.00,NW,315,12.0,19.0,32,0.00,,,-99.99,,2013-04-03 15:53:00,
2013-04-03 12:03:00,31.0,5.0,-100.00,NW,305,7.0,21.0,33,0.00,,,-99.99,,2013-04-03 16:03:00,
2013-04-03 12:13:00,31.0,5.0,-100.00,NNW,340,10.0,20.0,31,0.00,,,-99.99,,2013-04-03 16:13:00,
2013-04-03 12:24:00,32.0,6.0,-100.00,NNW,340,9.0,18.0,34,0.00,,,-99.99,,2013-04-03 16:24:00,
2013-04-03 12:33:00,32.0,6.0,-100.00,West,270,9.0,21.0,32,0.00,,,-99.99,,2013-04-03 16:33:00,
2013-04-03 12:43:00,32.0,4.0,-100.00,WNW,295,10.0,21.0,29,0.00,,,-99.99,,2013-04-03 16:43:00,
2013-04-03 12:52:00,32.0,4.0,-100.00,NNW,330,11.0,20.0,30,0.00,,,-99.99,,2013-04-03 16:52:00,
2013-04-03 13:03:00,32.0,4.0,-100.00,WNW,290,11.0,20.0,30,0.00,,,-99.99,,2013-04-03 17:03:00,
2013-04-03 13:13:00,33.0,4.0,-100.00,NNW,330,14.0,23.0,29,0.00,,,-99.99,,2013-04-03 17:13:00,
2013-04-03 13:23:00,33.0,5.0,-100.00,NW,305,12.0,20.0,30,0.00,,,-99.99,,2013-04-03 17:23:00,
2013-04-03 13:33:00,33.0,4.0,-100.00,NW,320,9.0,23.0,28,0.00,,,-99.99,,2013-04-03 17:33:00,
2013-04-03 13:46:00,33.0,4.0,-100.00,NW,320,9.0,23.0,28,0.00,,,-99.99,,2013-04-03 17:46:00,
2013-04-03 13:53:00,33.0,4.0,-100.00,NW,320,9.0,23.0,28,0.00,,,-99.99,,2013-04-03 17:53:00,
2013-04-03 14:02:00,33.0,4.0,-100.00,NW,320,9.0,23.0,28,0.00,,,-99.99,,2013-04-03 18:02:00,
2013-04-03 14:13:00,34.0,2.0,-100.00,NW,305,12.0,23.0,25,0.00,,,-99.99,,2013-04-03 18:13:00,
2013-04-03 14:23:00,34.0,1.0,-100.00,NNW,345,17.0,23.0,24,0.00,,,-99.99,,2013-04-03 18:23:00,
2013-04-03 14:34:00,35.0,2.0,-100.00,NNW,330,9.0,30.0,25,0.00,,,-99.99,,2013-04-03 18:34:00,
2013-04-03 14:43:00,35.0,5.0,-100.00,NW,325,9.0,25.0,27,0.00,,,-99.99,,2013-04-03 18:43:00,
2013-04-03 14:52:00,35.0,5.0,-100.00,WNW,295,7.0,18.0,27,0.00,,,-99.99,,2013-04-03 18:52:00,
2013-04-03 15:03:00,35.0,3.0,-100.00,WNW,285,11.0,23.0,25,0.00,,,-99.99,,2013-04-03 19:03:00,
2013-04-03 15:12:00,35.0,2.0,-100.00,NW,325,16.0,21.0,24,0.00,,,-99.99,,2013-04-03 19:12:00,
2013-04-03 15:22:00,36.0,3.0,-100.00,NW,320,6.0,24.0,24,0.00,,,-99.99,,2013-04-03 19:22:00,
2013-04-03 15:32:00,36.0,6.0,-100.00,WNW,300,5.0,27.0,27,0.00,,,-99.99,,2013-04-03 19:32:00,
2013-04-03 15:42:00,36.0,1.0,-100.00,NNW,335,14.0,27.0,22,0.00,,,-99.99,,2013-04-03 19:42:00,
2013-04-03 15:52:00,36.0,3.0,-100.00,NW,320,9.0,23.0,24,0.00,,,-99.99,,2013-04-03 19:52:00,
2013-04-03 16:02:00,36.0,4.0,-100.00,West,275,9.0,21.0,25,0.00,,,-99.99,,2013-04-03 20:02:00,
2013-04-03 16:12:00,36.0,3.0,-100.00,NNW,335,15.0,29.0,24,0.00,,,-99.99,,2013-04-03 20:12:00,
2013-04-03 16:23:00,36.0,3.0,-100.00,WNW,285,9.0,27.0,24,0.00,,,-99.99,,2013-04-03 20:23:00,
2013-04-03 16:32:00,36.0,4.0,-100.00,NNW,335,11.0,22.0,25,0.00,,,-99.99,,2013-04-03 20:32:00,
2013-04-03 16:42:00,36.0,4.0,-100.00,NNW,335,14.0,26.0,25,0.00,,,-99.99,,2013-04-03 20:42:00,
2013-04-03 16:52:00,36.0,5.0,-100.00,West,275,11.0,26.0,26,0.00,,,-99.99,,2013-04-03 20:52:00,
2013-04-03 17:02:00,36.0,7.0,-100.00,WNW,300,7.0,21.0,28,0.00,,,-99.99,,2013-04-03 21:02:00,
2013-04-03 17:12:00,36.0,6.0,-100.00,NW,305,9.0,19.0,27,0.00,,,-99.99,,2013-04-03 21:12:00,
2013-04-03 17:22:00,36.0,7.0,-100.00,WNW,300,7.0,20.0,29,0.00,,,-99.99,,2013-04-03 21:22:00,
2013-04-03 17:33:00,36.0,6.0,-100.00,WNW,295,7.0,14.0,27,0.00,,,-99.99,,2013-04-03 21:33:00,
2013-04-03 17:42:00,36.0,6.0,-100.00,NNW,330,11.0,21.0,28,0.00,,,-99.99,,2013-04-03 21:42:00,
2013-04-03 17:52:00,34.0,6.0,-100.00,NNW,345,15.0,24.0,30,0.00,,,-99.99,,2013-04-03 21:52:00,
2013-04-03 18:02:00,34.0,7.0,-100.00,NNW,330,17.0,28.0,31,0.00,,,-99.99,,2013-04-03 22:02:00,
2013-04-03 18:12:00,33.0,8.0,-100.00,NW,325,15.0,25.0,34,0.00,,,-99.99,,2013-04-03 22:12:00,
2013-04-03 18:22:00,33.0,8.0,-100.00,NNW,330,14.0,25.0,35,0.00,,,-99.99,,2013-04-03 22:22:00,
2013-04-03 18:32:00,33.0,9.0,-100.00,NNW,335,12.0,21.0,35,0.00,,,-99.99,,2013-04-03 22:32:00,
2013-04-03 18:42:00,33.0,9.0,-100.00,NW,315,11.0,19.0,36,0.00,,,-99.99,,2013-04-03 22:42:00,
2013-04-03 18:52:00,32.0,9.0,-100.00,NW,310,14.0,27.0,36,0.00,,,-99.99,,2013-04-03 22:52:00,
2013-04-03 19:02:00,32.0,9.0,-100.00,NW,315,14.0,27.0,37,0.00,,,-99.99,,2013-04-03 23:02:00,
2013-04-03 19:12:00,31.0,10.0,-100.00,NNW,335,14.0,23.0,40,0.00,,,-99.99,,2013-04-03 23:12:00,
2013-04-03 19:22:00,31.0,10.0,-100.00,NW,320,12.0,22.0,39,0.00,,,-99.99,,2013-04-03 23:22:00,
2013-04-03 19:42:00,31.0,11.0,-100.00,NW,310,9.0,21.0,43,0.00,,,-99.99,,2013-04-03 23:42:00,
2013-04-03 19:53:00,31.0,11.0,-100.00,NW,315,14.0,22.0,43,0.00,,,-99.99,,2013-04-03 23:53:00,
2013-04-03 20:03:00,30.0,12.0,-100.00,NW,315,7.0,24.0,46,0.00,,,-99.99,,2013-04-04 00:03:00,
2013-04-03 20:12:00,30.0,13.0,-100.00,NNW,330,9.0,21.0,47,0.00,,,-99.99,,2013-04-04 00:12:00,
2013-04-03 20:22:00,30.0,13.0,-100.00,NW,310,6.0,14.0,48,0.00,,,-99.99,,2013-04-04 00:22:00,
2013-04-03 20:32:00,30.0,13.0,-100.00,NW,320,9.0,19.0,49,0.00,,,-99.99,,2013-04-04 00:32:00,
2013-04-03 20:43:00,30.0,15.0,-100.00,NW,320,16.0,23.0,52,0.00,,,-99.99,,2013-04-04 00:43:00,
2013-04-03 20:52:00,30.0,15.0,-100.00,NNW,345,16.0,22.0,54,0.00,,,-99.99,,2013-04-04 00:52:00,
2013-04-03 21:02:00,30.0,17.0,-100.00,NW,320,7.0,17.0,57,0.00,,,-99.99,,2013-04-04 01:02:00,
2013-04-03 21:12:00,29.0,17.0,-100.00,NW,310,6.0,19.0,59,0.00,,,-99.99,,2013-04-04 01:12:00,
2013-04-03 21:22:00,29.0,17.0,-100.00,West,280,7.0,17.0,61,0.00,,,-99.99,,2013-04-04 01:22:00,
2013-04-03 21:32:00,29.0,18.0,-100.00,NW,320,4.0,14.0,63,0.00,,,-99.99,,2013-04-04 01:32:00,
2013-04-03 21:43:00,29.0,18.0,-100.00,WNW,295,7.0,15.0,64,0.00,,,-99.99,,2013-04-04 01:43:00,
2013-04-03 21:52:00,29.0,19.0,-100.00,WNW,300,7.0,14.0,65,0.00,,,-99.99,,2013-04-04 01:52:00,
2013-04-03 22:02:00,29.0,19.0,-100.00,WNW,295,2.0,17.0,67,0.00,,,-99.99,,2013-04-04 02:02:00,
2013-04-03 22:12:00,28.0,19.0,-100.00,WNW,285,4.0,16.0,67,0.00,,,-99.99,,2013-04-04 02:12:00,
2013-04-03 22:22:00,28.0,19.0,-100.00,West,265,2.0,12.0,67,0.00,,,-99.99,,2013-04-04 02:22:00,
2013-04-03 22:32:00,28.0,19.0,-100.00,WNW,300,2.0,9.0,67,0.00,,,-99.99,,2013-04-04 02:32:00,
2013-04-03 22:42:00,28.0,19.0,-100.00,WNW,300,2.0,9.0,67,0.00,,,-99.99,,2013-04-04 02:42:00,
2013-04-03 22:52:00,28.0,19.0,-100.00,WNW,300,2.0,9.0,67,0.00,,,-99.99,,2013-04-04 02:52:00,
2013-04-03 23:02:00,29.0,15.0,-100.00,NW,325,4.0,10.0,55,0.00,,,-99.99,,2013-04-04 03:02:00,
2013-04-03 23:12:00,29.0,14.0,-100.00,NNW,335,5.0,9.0,51,0.00,,,-99.99,,2013-04-04 03:12:00,
2013-04-03 23:22:00,30.0,13.0,-100.00,NW,310,7.0,18.0,48,0.00,,,-99.99,,2013-04-04 03:22:00,
2013-04-03 23:33:00,29.0,13.0,-100.00,WNW,300,7.0,23.0,49,0.00,,,-99.99,,2013-04-04 03:33:00,
2013-04-03 23:45:00,29.0,13.0,-100.00,NNW,340,7.0,17.0,48,0.00,,,-99.99,,2013-04-04 03:45:00,
2013-04-03 23:53:00,29.0,12.0,-100.00,NW,320,12.0,17.0,48,0.00,,,-99.99,,2013-04-04 03:53:00,